sensor_id;sensor_type;location;lat;lon;timestamp;P1;durP1;ratioP1;P2;durP2;ratioP2
26512;SDS011;14186;53.822;10.152;2023-06-14T00:01:15;10.35;;;5.05;;
26512;SDS011;14186;53.822;10.152;2023-06-14T00:06:15;6.57;;;4.38;;
26512;SDS011;14186;53.822;10.152;2023-06-14T00:11:17;8.18;;;4.20;;
26512;SDS011;14186;53.822;10.152;2023-06-14T00:16:17;10.98;;;4.80;;
26512;SDS011;14186;53.822;10.152;2023-06-14T00:21:17;7.75;;;3.65;;
26512;SDS011;14186;53.822;10.152;2023-06-14T00:26:19;9.20;;;4.18;;
26512;SDS011;14186;53.822;10.152;2023-06-14T00:31:19;7.45;;;4.25;;
26512;SDS011;14186;53.822;10.152;2023-06-14T00:36:19;8.65;;;3.72;;
26512;SDS011;14186;53.822;10.152;2023-06-14T00:41:21;10.50;;;4.15;;
26512;SDS011;14186;53.822;10.152;2023-06-14T00:46:21;11.50;;;4.38;;
26512;SDS011;14186;53.822;10.152;2023-06-14T00:51:21;11.48;;;4.43;;
26512;SDS011;14186;53.822;10.152;2023-06-14T00:56:23;8.63;;;4.72;;
26512;SDS011;14186;53.822;10.152;2023-06-14T01:01:23;10.00;;;4.22;;
26512;SDS011;14186;53.822;10.152;2023-06-14T01:06:34;11.45;;;5.95;;
26512;SDS011;14186;53.822;10.152;2023-06-14T01:11:41;10.73;;;5.90;;
26512;SDS011;14186;53.822;10.152;2023-06-14T01:16:43;11.15;;;5.72;;
26512;SDS011;14186;53.822;10.152;2023-06-14T01:21:44;11.52;;;6.07;;
26512;SDS011;14186;53.822;10.152;2023-06-14T01:26:45;13.30;;;7.33;;
26512;SDS011;14186;53.822;10.152;2023-06-14T01:31:47;17.17;;;6.65;;
26512;SDS011;14186;53.822;10.152;2023-06-14T01:36:48;14.43;;;7.03;;
26512;SDS011;14186;53.822;10.152;2023-06-14T01:41:51;10.88;;;6.80;;
26512;SDS011;14186;53.822;10.152;2023-06-14T01:46:51;14.45;;;7.30;;
26512;SDS011;14186;53.822;10.152;2023-06-14T01:51:52;14.85;;;6.85;;
26512;SDS011;14186;53.822;10.152;2023-06-14T01:56:53;14.88;;;7.10;;
26512;SDS011;14186;53.822;10.152;2023-06-14T02:01:53;12.25;;;6.93;;
26512;SDS011;14186;53.822;10.152;2023-06-14T02:06:54;16.58;;;7.03;;
26512;SDS011;14186;53.822;10.152;2023-06-14T02:11:55;11.23;;;7.00;;
26512;SDS011;14186;53.822;10.152;2023-06-14T02:16:55;13.52;;;7.53;;
26512;SDS011;14186;53.822;10.152;2023-06-14T02:21:55;14.00;;;6.93;;
26512;SDS011;14186;53.822;10.152;2023-06-14T02:26:57;16.23;;;8.18;;
26512;SDS011;14186;53.822;10.152;2023-06-14T02:31:57;12.60;;;8.55;;
26512;SDS011;14186;53.822;10.152;2023-06-14T02:36:57;14.98;;;7.38;;
26512;SDS011;14186;53.822;10.152;2023-06-14T02:41:59;16.15;;;7.57;;
26512;SDS011;14186;53.822;10.152;2023-06-14T02:46:59;15.57;;;8.88;;
26512;SDS011;14186;53.822;10.152;2023-06-14T02:51:59;16.25;;;7.75;;
26512;SDS011;14186;53.822;10.152;2023-06-14T02:57:01;18.98;;;9.52;;
26512;SDS011;14186;53.822;10.152;2023-06-14T03:02:01;17.58;;;8.75;;
26512;SDS011;14186;53.822;10.152;2023-06-14T03:07:01;19.25;;;9.02;;
26512;SDS011;14186;53.822;10.152;2023-06-14T03:12:03;14.18;;;7.80;;
26512;SDS011;14186;53.822;10.152;2023-06-14T03:17:03;19.85;;;9.50;;
26512;SDS011;14186;53.822;10.152;2023-06-14T03:22:04;16.88;;;9.25;;
26512;SDS011;14186;53.822;10.152;2023-06-14T03:27:05;18.10;;;9.93;;
26512;SDS011;14186;53.822;10.152;2023-06-14T03:32:06;20.30;;;10.27;;
26512;SDS011;14186;53.822;10.152;2023-06-14T03:37:06;18.30;;;9.80;;
26512;SDS011;14186;53.822;10.152;2023-06-14T03:42:08;18.50;;;9.57;;
26512;SDS011;14186;53.822;10.152;2023-06-14T03:47:08;14.85;;;8.48;;
26512;SDS011;14186;53.822;10.152;2023-06-14T03:52:09;16.13;;;8.50;;
26512;SDS011;14186;53.822;10.152;2023-06-14T03:57:10;14.43;;;8.27;;
26512;SDS011;14186;53.822;10.152;2023-06-14T04:02:10;12.65;;;8.10;;
26512;SDS011;14186;53.822;10.152;2023-06-14T04:07:11;14.45;;;8.07;;
26512;SDS011;14186;53.822;10.152;2023-06-14T04:12:12;11.43;;;6.47;;
26512;SDS011;14186;53.822;10.152;2023-06-14T04:17:12;9.32;;;4.53;;
26512;SDS011;14186;53.822;10.152;2023-06-14T04:22:13;13.65;;;5.28;;
26512;SDS011;14186;53.822;10.152;2023-06-14T04:27:15;11.15;;;4.93;;
26512;SDS011;14186;53.822;10.152;2023-06-14T04:32:15;9.30;;;4.45;;
26512;SDS011;14186;53.822;10.152;2023-06-14T04:37:15;22.30;;;4.68;;
26512;SDS011;14186;53.822;10.152;2023-06-14T04:42:17;10.48;;;4.72;;
26512;SDS011;14186;53.822;10.152;2023-06-14T04:47:17;15.10;;;4.50;;
26512;SDS011;14186;53.822;10.152;2023-06-14T04:52:17;15.32;;;4.80;;
26512;SDS011;14186;53.822;10.152;2023-06-14T04:57:19;18.33;;;6.75;;
26512;SDS011;14186;53.822;10.152;2023-06-14T05:02:19;10.93;;;4.50;;
26512;SDS011;14186;53.822;10.152;2023-06-14T05:07:19;8.25;;;3.40;;
26512;SDS011;14186;53.822;10.152;2023-06-14T05:12:21;10.40;;;3.70;;
26512;SDS011;14186;53.822;10.152;2023-06-14T05:17:21;17.23;;;4.40;;
26512;SDS011;14186;53.822;10.152;2023-06-14T05:22:21;11.10;;;3.97;;
26512;SDS011;14186;53.822;10.152;2023-06-14T05:27:23;7.35;;;3.97;;
26512;SDS011;14186;53.822;10.152;2023-06-14T05:32:23;7.13;;;3.70;;
26512;SDS011;14186;53.822;10.152;2023-06-14T05:37:23;12.23;;;4.90;;
26512;SDS011;14186;53.822;10.152;2023-06-14T05:42:25;5.90;;;3.45;;
26512;SDS011;14186;53.822;10.152;2023-06-14T05:47:25;9.00;;;3.45;;
26512;SDS011;14186;53.822;10.152;2023-06-14T05:52:26;6.80;;;3.25;;
26512;SDS011;14186;53.822;10.152;2023-06-14T05:57:27;13.80;;;3.83;;
26512;SDS011;14186;53.822;10.152;2023-06-14T06:02:27;9.32;;;4.22;;
26512;SDS011;14186;53.822;10.152;2023-06-14T06:07:28;6.05;;;2.75;;
26512;SDS011;14186;53.822;10.152;2023-06-14T06:12:29;11.48;;;3.92;;
26512;SDS011;14186;53.822;10.152;2023-06-14T06:17:29;9.32;;;3.42;;
26512;SDS011;14186;53.822;10.152;2023-06-14T06:22:30;13.52;;;3.45;;
26512;SDS011;14186;53.822;10.152;2023-06-14T06:27:31;7.95;;;4.28;;
26512;SDS011;14186;53.822;10.152;2023-06-14T06:32:31;6.28;;;2.83;;
26512;SDS011;14186;53.822;10.152;2023-06-14T06:37:32;15.70;;;4.32;;
26512;SDS011;14186;53.822;10.152;2023-06-14T06:42:33;8.65;;;3.08;;
26512;SDS011;14186;53.822;10.152;2023-06-14T06:47:33;13.85;;;4.13;;
26512;SDS011;14186;53.822;10.152;2023-06-14T06:52:34;9.93;;;4.18;;
26512;SDS011;14186;53.822;10.152;2023-06-14T06:57:35;10.25;;;3.63;;
26512;SDS011;14186;53.822;10.152;2023-06-14T07:02:35;6.45;;;3.00;;
26512;SDS011;14186;53.822;10.152;2023-06-14T07:07:35;11.00;;;2.78;;
26512;SDS011;14186;53.822;10.152;2023-06-14T07:12:37;11.10;;;3.22;;
26512;SDS011;14186;53.822;10.152;2023-06-14T07:17:37;6.72;;;2.95;;
26512;SDS011;14186;53.822;10.152;2023-06-14T07:22:38;7.65;;;2.83;;
26512;SDS011;14186;53.822;10.152;2023-06-14T07:27:39;12.85;;;2.55;;
26512;SDS011;14186;53.822;10.152;2023-06-14T07:32:40;5.18;;;2.72;;
26512;SDS011;14186;53.822;10.152;2023-06-14T07:37:40;4.18;;;2.22;;
26512;SDS011;14186;53.822;10.152;2023-06-14T07:42:41;5.85;;;2.78;;
26512;SDS011;14186;53.822;10.152;2023-06-14T07:47:42;7.38;;;2.60;;
26512;SDS011;14186;53.822;10.152;2023-06-14T07:52:42;6.60;;;2.92;;
26512;SDS011;14186;53.822;10.152;2023-06-14T07:57:44;7.43;;;3.35;;
26512;SDS011;14186;53.822;10.152;2023-06-14T08:02:44;7.05;;;2.08;;
26512;SDS011;14186;53.822;10.152;2023-06-14T08:07:44;3.63;;;1.92;;
26512;SDS011;14186;53.822;10.152;2023-06-14T08:12:46;4.72;;;2.13;;
26512;SDS011;14186;53.822;10.152;2023-06-14T08:17:46;5.93;;;2.47;;
26512;SDS011;14186;53.822;10.152;2023-06-14T08:22:46;4.95;;;2.45;;
26512;SDS011;14186;53.822;10.152;2023-06-14T08:27:48;6.63;;;2.47;;
26512;SDS011;14186;53.822;10.152;2023-06-14T08:32:48;7.80;;;2.65;;
26512;SDS011;14186;53.822;10.152;2023-06-14T08:37:49;7.05;;;2.88;;
26512;SDS011;14186;53.822;10.152;2023-06-14T08:42:51;11.18;;;3.00;;
26512;SDS011;14186;53.822;10.152;2023-06-14T08:47:52;5.63;;;2.55;;
26512;SDS011;14186;53.822;10.152;2023-06-14T08:52:53;9.90;;;3.53;;
26512;SDS011;14186;53.822;10.152;2023-06-14T08:57:55;9.38;;;2.85;;
26512;SDS011;14186;53.822;10.152;2023-06-14T09:02:56;6.72;;;3.15;;
26512;SDS011;14186;53.822;10.152;2023-06-14T09:07:56;7.85;;;2.83;;
26512;SDS011;14186;53.822;10.152;2023-06-14T09:12:58;7.50;;;2.60;;
26512;SDS011;14186;53.822;10.152;2023-06-14T09:17:58;5.47;;;2.40;;
26512;SDS011;14186;53.822;10.152;2023-06-14T09:23:03;9.55;;;3.20;;
26512;SDS011;14186;53.822;10.152;2023-06-14T09:28:07;7.38;;;2.47;;
26512;SDS011;14186;53.822;10.152;2023-06-14T09:33:07;4.55;;;2.85;;
26512;SDS011;14186;53.822;10.152;2023-06-14T09:38:07;6.35;;;2.42;;
26512;SDS011;14186;53.822;10.152;2023-06-14T09:43:09;5.38;;;2.53;;
26512;SDS011;14186;53.822;10.152;2023-06-14T09:48:09;4.65;;;2.50;;
26512;SDS011;14186;53.822;10.152;2023-06-14T09:53:10;12.23;;;2.92;;
26512;SDS011;14186;53.822;10.152;2023-06-14T09:58:12;9.90;;;3.55;;
26512;SDS011;14186;53.822;10.152;2023-06-14T10:03:14;5.53;;;2.50;;
26512;SDS011;14186;53.822;10.152;2023-06-14T10:08:17;6.10;;;2.17;;
26512;SDS011;14186;53.822;10.152;2023-06-14T10:13:19;6.72;;;2.72;;
26512;SDS011;14186;53.822;10.152;2023-06-14T10:18:22;8.68;;;2.30;;
26512;SDS011;14186;53.822;10.152;2023-06-14T10:23:24;7.25;;;2.20;;
26512;SDS011;14186;53.822;10.152;2023-06-14T10:28:27;12.10;;;2.63;;
26512;SDS011;14186;53.822;10.152;2023-06-14T10:33:27;8.65;;;2.28;;
26512;SDS011;14186;53.822;10.152;2023-06-14T10:38:29;5.82;;;2.00;;
26512;SDS011;14186;53.822;10.152;2023-06-14T10:43:31;5.05;;;1.80;;
26512;SDS011;14186;53.822;10.152;2023-06-14T10:48:32;7.93;;;3.00;;
26512;SDS011;14186;53.822;10.152;2023-06-14T10:53:38;4.97;;;2.20;;
26512;SDS011;14186;53.822;10.152;2023-06-14T10:58:41;5.43;;;2.10;;
26512;SDS011;14186;53.822;10.152;2023-06-14T11:03:48;4.25;;;2.03;;
26512;SDS011;14186;53.822;10.152;2023-06-14T11:09:05;9.23;;;3.28;;
26512;SDS011;14186;53.822;10.152;2023-06-14T11:14:13;7.68;;;2.80;;
26512;SDS011;14186;53.822;10.152;2023-06-14T11:19:13;6.05;;;2.25;;
26512;SDS011;14186;53.822;10.152;2023-06-14T11:24:13;3.58;;;2.10;;
26512;SDS011;14186;53.822;10.152;2023-06-14T11:29:16;6.38;;;2.30;;
26512;SDS011;14186;53.822;10.152;2023-06-14T11:34:16;6.25;;;2.20;;
26512;SDS011;14186;53.822;10.152;2023-06-14T11:39:17;5.15;;;2.00;;
26512;SDS011;14186;53.822;10.152;2023-06-14T11:44:18;7.80;;;2.53;;
26512;SDS011;14186;53.822;10.152;2023-06-14T11:49:19;3.80;;;2.05;;
26512;SDS011;14186;53.822;10.152;2023-06-14T11:54:19;5.72;;;2.50;;
26512;SDS011;14186;53.822;10.152;2023-06-14T11:59:21;8.05;;;2.60;;
26512;SDS011;14186;53.822;10.152;2023-06-14T12:04:24;6.22;;;2.58;;
26512;SDS011;14186;53.822;10.152;2023-06-14T12:09:24;7.38;;;2.90;;
26512;SDS011;14186;53.822;10.152;2023-06-14T12:14:29;9.15;;;2.10;;
26512;SDS011;14186;53.822;10.152;2023-06-14T12:19:30;7.40;;;2.15;;
26512;SDS011;14186;53.822;10.152;2023-06-14T12:24:30;9.43;;;2.30;;
26512;SDS011;14186;53.822;10.152;2023-06-14T12:29:33;10.45;;;2.60;;
26512;SDS011;14186;53.822;10.152;2023-06-14T12:34:33;10.98;;;2.40;;
26512;SDS011;14186;53.822;10.152;2023-06-14T12:39:33;13.07;;;2.03;;
26512;SDS011;14186;53.822;10.152;2023-06-14T12:44:35;5.50;;;1.88;;
26512;SDS011;14186;53.822;10.152;2023-06-14T12:49:35;6.72;;;2.40;;
26512;SDS011;14186;53.822;10.152;2023-06-14T12:54:36;9.30;;;2.80;;
26512;SDS011;14186;53.822;10.152;2023-06-14T12:59:37;4.40;;;2.00;;
26512;SDS011;14186;53.822;10.152;2023-06-14T13:04:37;5.25;;;2.53;;
26512;SDS011;14186;53.822;10.152;2023-06-14T13:09:38;11.27;;;2.83;;
26512;SDS011;14186;53.822;10.152;2023-06-14T13:14:39;12.25;;;2.28;;
26512;SDS011;14186;53.822;10.152;2023-06-14T13:19:39;4.10;;;1.92;;
26512;SDS011;14186;53.822;10.152;2023-06-14T13:24:40;5.45;;;1.90;;
26512;SDS011;14186;53.822;10.152;2023-06-14T13:29:41;4.53;;;1.80;;
26512;SDS011;14186;53.822;10.152;2023-06-14T13:34:41;7.00;;;2.13;;
26512;SDS011;14186;53.822;10.152;2023-06-14T13:39:41;8.90;;;2.13;;
26512;SDS011;14186;53.822;10.152;2023-06-14T13:44:43;6.40;;;1.95;;
26512;SDS011;14186;53.822;10.152;2023-06-14T13:49:43;5.93;;;1.95;;
26512;SDS011;14186;53.822;10.152;2023-06-14T13:54:43;9.65;;;2.30;;
26512;SDS011;14186;53.822;10.152;2023-06-14T13:59:45;3.58;;;1.90;;
26512;SDS011;14186;53.822;10.152;2023-06-14T14:04:45;5.82;;;1.83;;
26512;SDS011;14186;53.822;10.152;2023-06-14T14:09:45;5.75;;;1.70;;
26512;SDS011;14186;53.822;10.152;2023-06-14T14:14:47;8.80;;;2.28;;
26512;SDS011;14186;53.822;10.152;2023-06-14T14:19:47;4.95;;;2.40;;
26512;SDS011;14186;53.822;10.152;2023-06-14T14:24:47;8.32;;;2.17;;
26512;SDS011;14186;53.822;10.152;2023-06-14T14:29:49;6.82;;;2.42;;
26512;SDS011;14186;53.822;10.152;2023-06-14T14:34:49;3.90;;;2.15;;
26512;SDS011;14186;53.822;10.152;2023-06-14T14:39:49;7.15;;;2.00;;
26512;SDS011;14186;53.822;10.152;2023-06-14T14:44:51;9.30;;;2.10;;
26512;SDS011;14186;53.822;10.152;2023-06-14T14:49:51;6.18;;;2.20;;
26512;SDS011;14186;53.822;10.152;2023-06-14T14:54:51;11.15;;;2.15;;
26512;SDS011;14186;53.822;10.152;2023-06-14T14:59:53;5.35;;;2.45;;
26512;SDS011;14186;53.822;10.152;2023-06-14T15:04:53;4.22;;;2.03;;
26512;SDS011;14186;53.822;10.152;2023-06-14T15:09:54;5.75;;;1.88;;
26512;SDS011;14186;53.822;10.152;2023-06-14T15:14:55;7.93;;;1.77;;
26512;SDS011;14186;53.822;10.152;2023-06-14T15:19:56;5.65;;;2.60;;
26512;SDS011;14186;53.822;10.152;2023-06-14T15:24:56;8.35;;;2.08;;
26512;SDS011;14186;53.822;10.152;2023-06-14T15:29:57;3.33;;;1.90;;
26512;SDS011;14186;53.822;10.152;2023-06-14T15:34:58;7.22;;;1.60;;
26512;SDS011;14186;53.822;10.152;2023-06-14T15:39:58;6.43;;;1.92;;
26512;SDS011;14186;53.822;10.152;2023-06-14T15:44:59;7.40;;;2.20;;
26512;SDS011;14186;53.822;10.152;2023-06-14T15:50:00;6.40;;;1.92;;
26512;SDS011;14186;53.822;10.152;2023-06-14T15:55:00;4.90;;;1.75;;
26512;SDS011;14186;53.822;10.152;2023-06-14T16:00:02;8.10;;;2.05;;
26512;SDS011;14186;53.822;10.152;2023-06-14T16:05:02;5.97;;;2.03;;
26512;SDS011;14186;53.822;10.152;2023-06-14T16:10:03;5.75;;;1.48;;
26512;SDS011;14186;53.822;10.152;2023-06-14T16:15:05;3.38;;;1.95;;
26512;SDS011;14186;53.822;10.152;2023-06-14T16:20:06;6.43;;;2.00;;
26512;SDS011;14186;53.822;10.152;2023-06-14T16:25:07;6.45;;;2.10;;
26512;SDS011;14186;53.822;10.152;2023-06-14T16:30:09;5.65;;;2.08;;
26512;SDS011;14186;53.822;10.152;2023-06-14T16:35:09;5.53;;;2.10;;
26512;SDS011;14186;53.822;10.152;2023-06-14T16:40:09;8.68;;;2.20;;
26512;SDS011;14186;53.822;10.152;2023-06-14T16:45:11;6.97;;;1.75;;
26512;SDS011;14186;53.822;10.152;2023-06-14T16:50:11;7.18;;;2.33;;
26512;SDS011;14186;53.822;10.152;2023-06-14T16:55:12;4.57;;;1.77;;
26512;SDS011;14186;53.822;10.152;2023-06-14T17:00:14;4.13;;;1.80;;
26512;SDS011;14186;53.822;10.152;2023-06-14T17:05:14;3.97;;;1.70;;
26512;SDS011;14186;53.822;10.152;2023-06-14T17:10:14;7.03;;;1.50;;
26512;SDS011;14186;53.822;10.152;2023-06-14T17:15:16;3.03;;;1.40;;
26512;SDS011;14186;53.822;10.152;2023-06-14T17:20:16;3.65;;;1.40;;
26512;SDS011;14186;53.822;10.152;2023-06-14T17:25:16;4.78;;;1.58;;
26512;SDS011;14186;53.822;10.152;2023-06-14T17:30:18;5.50;;;1.55;;
26512;SDS011;14186;53.822;10.152;2023-06-14T17:35:18;5.25;;;1.45;;
26512;SDS011;14186;53.822;10.152;2023-06-14T17:40:19;5.57;;;2.10;;
26512;SDS011;14186;53.822;10.152;2023-06-14T17:45:20;3.88;;;1.88;;
26512;SDS011;14186;53.822;10.152;2023-06-14T17:50:21;5.03;;;1.63;;
26512;SDS011;14186;53.822;10.152;2023-06-14T17:55:21;2.63;;;1.53;;
26512;SDS011;14186;53.822;10.152;2023-06-14T18:00:23;5.32;;;1.77;;
26512;SDS011;14186;53.822;10.152;2023-06-14T18:05:23;3.97;;;1.50;;
26512;SDS011;14186;53.822;10.152;2023-06-14T18:10:24;3.85;;;1.38;;
26512;SDS011;14186;53.822;10.152;2023-06-14T18:15:26;4.72;;;1.58;;
26512;SDS011;14186;53.822;10.152;2023-06-14T18:20:26;2.80;;;1.40;;
26512;SDS011;14186;53.822;10.152;2023-06-14T18:25:26;5.35;;;1.48;;
26512;SDS011;14186;53.822;10.152;2023-06-14T18:30:28;3.78;;;1.85;;
26512;SDS011;14186;53.822;10.152;2023-06-14T18:35:28;5.15;;;1.83;;
26512;SDS011;14186;53.822;10.152;2023-06-14T18:40:28;4.28;;;2.10;;
26512;SDS011;14186;53.822;10.152;2023-06-14T18:45:30;4.03;;;1.67;;
26512;SDS011;14186;53.822;10.152;2023-06-14T18:50:31;4.13;;;2.05;;
26512;SDS011;14186;53.822;10.152;2023-06-14T18:55:31;4.75;;;1.70;;
26512;SDS011;14186;53.822;10.152;2023-06-14T19:00:32;4.90;;;2.10;;
26512;SDS011;14186;53.822;10.152;2023-06-14T19:05:33;2.85;;;1.52;;
26512;SDS011;14186;53.822;10.152;2023-06-14T19:10:33;5.82;;;1.60;;
26512;SDS011;14186;53.822;10.152;2023-06-14T19:15:35;3.28;;;1.58;;
26512;SDS011;14186;53.822;10.152;2023-06-14T19:20:35;4.45;;;1.83;;
26512;SDS011;14186;53.822;10.152;2023-06-14T19:25:35;4.25;;;2.00;;
26512;SDS011;14186;53.822;10.152;2023-06-14T19:30:37;7.75;;;2.00;;
26512;SDS011;14186;53.822;10.152;2023-06-14T19:35:37;4.97;;;1.85;;
26512;SDS011;14186;53.822;10.152;2023-06-14T19:40:37;3.50;;;1.77;;
26512;SDS011;14186;53.822;10.152;2023-06-14T19:45:39;5.20;;;1.90;;
26512;SDS011;14186;53.822;10.152;2023-06-14T19:50:39;3.55;;;1.70;;
26512;SDS011;14186;53.822;10.152;2023-06-14T19:55:39;5.25;;;1.83;;
26512;SDS011;14186;53.822;10.152;2023-06-14T20:00:41;2.80;;;1.85;;
26512;SDS011;14186;53.822;10.152;2023-06-14T20:05:41;6.22;;;1.70;;
26512;SDS011;14186;53.822;10.152;2023-06-14T20:10:41;5.00;;;2.08;;
26512;SDS011;14186;53.822;10.152;2023-06-14T20:15:43;8.93;;;2.60;;
26512;SDS011;14186;53.822;10.152;2023-06-14T20:20:43;4.43;;;2.25;;
26512;SDS011;14186;53.822;10.152;2023-06-14T20:25:44;10.73;;;3.13;;
26512;SDS011;14186;53.822;10.152;2023-06-14T20:30:45;8.23;;;2.55;;
26512;SDS011;14186;53.822;10.152;2023-06-14T20:35:45;6.63;;;2.28;;
26512;SDS011;14186;53.822;10.152;2023-06-14T20:40:46;6.25;;;2.13;;
26512;SDS011;14186;53.822;10.152;2023-06-14T20:45:47;4.88;;;2.08;;
26512;SDS011;14186;53.822;10.152;2023-06-14T20:50:47;5.43;;;2.20;;
26512;SDS011;14186;53.822;10.152;2023-06-14T20:55:48;5.53;;;1.97;;
26512;SDS011;14186;53.822;10.152;2023-06-14T21:00:49;4.68;;;1.85;;
26512;SDS011;14186;53.822;10.152;2023-06-14T21:05:50;3.83;;;1.90;;
26512;SDS011;14186;53.822;10.152;2023-06-14T21:10:50;4.78;;;2.03;;
26512;SDS011;14186;53.822;10.152;2023-06-14T21:15:51;3.80;;;2.10;;
26512;SDS011;14186;53.822;10.152;2023-06-14T21:20:52;7.20;;;3.20;;
26512;SDS011;14186;53.822;10.152;2023-06-14T21:25:52;6.50;;;2.13;;
26512;SDS011;14186;53.822;10.152;2023-06-14T21:30:53;4.25;;;2.30;;
26512;SDS011;14186;53.822;10.152;2023-06-14T21:35:54;3.60;;;2.03;;
26512;SDS011;14186;53.822;10.152;2023-06-14T21:40:54;8.52;;;2.47;;
26512;SDS011;14186;53.822;10.152;2023-06-14T21:45:56;5.07;;;2.20;;
26512;SDS011;14186;53.822;10.152;2023-06-14T21:50:56;4.38;;;2.17;;
26512;SDS011;14186;53.822;10.152;2023-06-14T21:55:56;3.92;;;2.08;;
26512;SDS011;14186;53.822;10.152;2023-06-14T22:00:57;5.20;;;2.22;;
26512;SDS011;14186;53.822;10.152;2023-06-14T22:05:58;7.35;;;2.60;;
26512;SDS011;14186;53.822;10.152;2023-06-14T22:10:58;7.65;;;2.35;;
26512;SDS011;14186;53.822;10.152;2023-06-14T22:15:59;6.65;;;2.40;;
26512;SDS011;14186;53.822;10.152;2023-06-14T22:21:00;6.15;;;2.08;;
26512;SDS011;14186;53.822;10.152;2023-06-14T22:26:00;5.60;;;2.10;;
26512;SDS011;14186;53.822;10.152;2023-06-14T22:31:01;5.68;;;2.63;;
26512;SDS011;14186;53.822;10.152;2023-06-14T22:36:02;7.78;;;2.33;;
26512;SDS011;14186;53.822;10.152;2023-06-14T22:41:02;5.83;;;2.03;;
26512;SDS011;14186;53.822;10.152;2023-06-14T22:46:04;9.85;;;2.83;;
26512;SDS011;14186;53.822;10.152;2023-06-14T22:51:04;6.05;;;2.30;;
26512;SDS011;14186;53.822;10.152;2023-06-14T22:56:05;5.28;;;2.08;;
26512;SDS011;14186;53.822;10.152;2023-06-14T23:01:07;6.55;;;2.50;;
26512;SDS011;14186;53.822;10.152;2023-06-14T23:06:07;7.07;;;2.55;;
26512;SDS011;14186;53.822;10.152;2023-06-14T23:11:07;7.35;;;2.38;;
26512;SDS011;14186;53.822;10.152;2023-06-14T23:16:09;6.03;;;2.37;;
26512;SDS011;14186;53.822;10.152;2023-06-14T23:21:09;4.32;;;2.47;;
26512;SDS011;14186;53.822;10.152;2023-06-14T23:26:09;4.75;;;2.65;;
26512;SDS011;14186;53.822;10.152;2023-06-14T23:31:11;5.40;;;2.25;;
26512;SDS011;14186;53.822;10.152;2023-06-14T23:36:12;5.93;;;2.38;;
26512;SDS011;14186;53.822;10.152;2023-06-14T23:41:12;5.38;;;2.15;;
26512;SDS011;14186;53.822;10.152;2023-06-14T23:46:14;6.68;;;2.63;;
26512;SDS011;14186;53.822;10.152;2023-06-14T23:51:14;5.57;;;2.33;;
26512;SDS011;14186;53.822;10.152;2023-06-14T23:56:14;6.30;;;2.60;;
